sensor_id;sensor_type;location;lat;lon;timestamp;pressure;altitude;pressure_sealevel;temperature;humidity
77216;BME280;66210;53.282;9.864;2023-04-15T00:01:09;100421.47;;;7.87;77.68
77216;BME280;66210;53.282;9.864;2023-04-15T00:03:37;100413.88;;;7.87;77.83
77216;BME280;66210;53.282;9.864;2023-04-15T00:06:04;100413.06;;;7.88;77.49
77216;BME280;66210;53.282;9.864;2023-04-15T00:08:31;100409.59;;;7.86;78.10
77216;BME280;66210;53.282;9.864;2023-04-15T00:10:57;100401.28;;;7.88;78.16
77216;BME280;66210;53.282;9.864;2023-04-15T00:13:28;100406.34;;;7.88;77.85
77216;BME280;66210;53.282;9.864;2023-04-15T00:15:55;100404.69;;;7.89;77.69
77216;BME280;66210;53.282;9.864;2023-04-15T00:18:23;100403.59;;;7.84;78.37
77216;BME280;66210;53.282;9.864;2023-04-15T00:20:50;100411.09;;;7.82;78.09
77216;BME280;66210;53.282;9.864;2023-04-15T00:23:18;100405.88;;;7.79;78.57
77216;BME280;66210;53.282;9.864;2023-04-15T00:25:44;100407.44;;;7.77;78.71
77216;BME280;66210;53.282;9.864;2023-04-15T00:28:11;100404.94;;;7.77;78.52
77216;BME280;66210;53.282;9.864;2023-04-15T00:30:37;100403.97;;;7.75;78.63
77216;BME280;66210;53.282;9.864;2023-04-15T00:33:04;100396.16;;;7.70;78.49
77216;BME280;66210;53.282;9.864;2023-04-15T00:35:31;100391.91;;;7.69;79.63
77216;BME280;66210;53.282;9.864;2023-04-15T00:37:58;100395.28;;;7.70;78.76
77216;BME280;66210;53.282;9.864;2023-04-15T00:40:25;100384.31;;;7.69;78.76
77216;BME280;66210;53.282;9.864;2023-04-15T00:42:51;100392.84;;;7.72;78.85
77216;BME280;66210;53.282;9.864;2023-04-15T00:45:18;100383.03;;;7.61;80.29
77216;BME280;66210;53.282;9.864;2023-04-15T00:47:45;100388.00;;;7.60;80.04
77216;BME280;66210;53.282;9.864;2023-04-15T00:50:12;100391.25;;;7.57;79.97
77216;BME280;66210;53.282;9.864;2023-04-15T00:52:39;100385.94;;;7.53;80.17
77216;BME280;66210;53.282;9.864;2023-04-15T00:55:07;100387.63;;;7.52;80.55
77216;BME280;66210;53.282;9.864;2023-04-15T00:57:34;100391.72;;;7.50;80.73
77216;BME280;66210;53.282;9.864;2023-04-15T01:00:01;100384.84;;;7.47;80.20
77216;BME280;66210;53.282;9.864;2023-04-15T01:02:30;100384.94;;;7.49;80.52
77216;BME280;66210;53.282;9.864;2023-04-15T01:04:57;100382.47;;;7.50;80.91
77216;BME280;66210;53.282;9.864;2023-04-15T01:07:23;100383.28;;;7.49;80.42
77216;BME280;66210;53.282;9.864;2023-04-15T01:09:51;100386.03;;;7.54;80.31
77216;BME280;66210;53.282;9.864;2023-04-15T01:12:18;100386.03;;;7.54;80.54
77216;BME280;66210;53.282;9.864;2023-04-15T01:14:45;100378.47;;;7.54;81.10
77216;BME280;66210;53.282;9.864;2023-04-15T01:17:12;100370.78;;;7.53;80.69
77216;BME280;66210;53.282;9.864;2023-04-15T01:19:39;100380.75;;;7.49;81.23
77216;BME280;66210;53.282;9.864;2023-04-15T01:22:06;100382.16;;;7.44;82.18
77216;BME280;66210;53.282;9.864;2023-04-15T01:24:32;100380.25;;;7.40;82.05
77216;BME280;66210;53.282;9.864;2023-04-15T01:26:59;100369.97;;;7.37;82.12
77216;BME280;66210;53.282;9.864;2023-04-15T01:29:26;100378.34;;;7.36;81.83
77216;BME280;66210;53.282;9.864;2023-04-15T01:31:54;100369.91;;;7.36;82.07
77216;BME280;66210;53.282;9.864;2023-04-15T01:34:22;100369.13;;;7.37;81.81
77216;BME280;66210;53.282;9.864;2023-04-15T01:36:49;100367.19;;;7.33;82.20
77216;BME280;66210;53.282;9.864;2023-04-15T01:39:15;100359.47;;;7.29;81.94
77216;BME280;66210;53.282;9.864;2023-04-15T01:41:41;100359.56;;;7.31;81.82
77216;BME280;66210;53.282;9.864;2023-04-15T01:44:08;100359.47;;;7.29;82.37
77216;BME280;66210;53.282;9.864;2023-04-15T01:46:35;100367.16;;;7.31;82.44
77216;BME280;66210;53.282;9.864;2023-04-15T01:49:02;100358.63;;;7.29;82.19
77216;BME280;66210;53.282;9.864;2023-04-15T01:51:28;100360.34;;;7.30;82.51
77216;BME280;66210;53.282;9.864;2023-04-15T01:53:55;100356.00;;;7.27;82.62
77216;BME280;66210;53.282;9.864;2023-04-15T01:56:24;100353.38;;;7.26;82.65
77216;BME280;66210;53.282;9.864;2023-04-15T01:58:52;100355.03;;;7.25;82.74
77216;BME280;66210;53.282;9.864;2023-04-15T02:01:18;100354.19;;;7.25;83.84
77216;BME280;66210;53.282;9.864;2023-04-15T02:03:45;100351.56;;;7.23;83.30
77216;BME280;66210;53.282;9.864;2023-04-15T02:06:13;100350.53;;;7.20;83.39
77216;BME280;66210;53.282;9.864;2023-04-15T02:08:39;100354.72;;;7.19;83.32
77216;BME280;66210;53.282;9.864;2023-04-15T02:11:06;100351.31;;;7.19;82.84
77216;BME280;66210;53.282;9.864;2023-04-15T02:13:32;100345.50;;;7.20;83.37
77216;BME280;66210;53.282;9.864;2023-04-15T02:15:59;100347.94;;;7.18;83.40
77216;BME280;66210;53.282;9.864;2023-04-15T02:18:26;100342.97;;;7.20;83.38
77216;BME280;66210;53.282;9.864;2023-04-15T02:20:52;100347.94;;;7.18;83.77
77216;BME280;66210;53.282;9.864;2023-04-15T02:23:19;100346.16;;;7.17;83.79
77216;BME280;66210;53.282;9.864;2023-04-15T02:25:46;100348.63;;;7.16;83.44
77216;BME280;66210;53.282;9.864;2023-04-15T02:28:20;100352.03;;;7.16;83.67
77216;BME280;66210;53.282;9.864;2023-04-15T02:30:48;100352.03;;;7.16;83.65
77216;BME280;66210;53.282;9.864;2023-04-15T02:33:18;100351.94;;;7.15;83.92
77216;BME280;66210;53.282;9.864;2023-04-15T02:35:44;100347.69;;;7.14;83.85
77216;BME280;66210;53.282;9.864;2023-04-15T02:38:12;100343.50;;;7.14;83.96
77216;BME280;66210;53.282;9.864;2023-04-15T02:40:39;100341.69;;;7.12;83.91
77216;BME280;66210;53.282;9.864;2023-04-15T02:43:06;100344.19;;;7.12;84.27
77216;BME280;66210;53.282;9.864;2023-04-15T02:45:33;100340.72;;;7.10;84.27
77216;BME280;66210;53.282;9.864;2023-04-15T02:48:00;100336.53;;;7.10;84.74
77216;BME280;66210;53.282;9.864;2023-04-15T02:50:31;100342.28;;;7.07;84.49
77216;BME280;66210;53.282;9.864;2023-04-15T02:52:58;100344.66;;;7.04;84.81
77216;BME280;66210;53.282;9.864;2023-04-15T02:55:27;100356.50;;;7.05;84.74
77216;BME280;66210;53.282;9.864;2023-04-15T02:57:54;100352.25;;;7.04;85.02
77216;BME280;66210;53.282;9.864;2023-04-15T03:00:21;100354.59;;;7.01;85.39
77216;BME280;66210;53.282;9.864;2023-04-15T03:02:50;100355.31;;;6.99;85.13
77216;BME280;66210;53.282;9.864;2023-04-15T03:05:22;100348.69;;;7.01;85.15
77216;BME280;66210;53.282;9.864;2023-04-15T03:07:51;100349.47;;;7.00;85.43
77216;BME280;66210;53.282;9.864;2023-04-15T03:10:43;100340.94;;;6.98;85.31
77216;BME280;66210;53.282;9.864;2023-04-15T03:13:10;100341.66;;;6.95;86.50
77216;BME280;66210;53.282;9.864;2023-04-15T03:15:36;100339.03;;;6.94;85.93
77216;BME280;66210;53.282;9.864;2023-04-15T03:18:03;100334.75;;;6.93;85.56
77216;BME280;66210;53.282;9.864;2023-04-15T03:20:30;100344.09;;;6.94;86.51
77216;BME280;66210;53.282;9.864;2023-04-15T03:22:57;100340.59;;;6.92;86.25
77216;BME280;66210;53.282;9.864;2023-04-15T03:25:23;100339.75;;;6.91;86.25
77216;BME280;66210;53.282;9.864;2023-04-15T03:27:50;100338.88;;;6.91;85.95
77216;BME280;66210;53.282;9.864;2023-04-15T03:30:17;100336.41;;;6.92;85.99
77216;BME280;66210;53.282;9.864;2023-04-15T03:32:44;100329.66;;;6.91;85.90
77216;BME280;66210;53.282;9.864;2023-04-15T03:35:11;100339.91;;;6.94;86.00
77216;BME280;66210;53.282;9.864;2023-04-15T03:37:37;100333.13;;;6.93;87.26
77216;BME280;66210;53.282;9.864;2023-04-15T03:40:05;100334.69;;;6.91;87.21
77216;BME280;66210;53.282;9.864;2023-04-15T03:42:32;100336.25;;;6.89;86.76
77216;BME280;66210;53.282;9.864;2023-04-15T03:44:59;100337.13;;;6.90;86.23
77216;BME280;66210;53.282;9.864;2023-04-15T03:47:26;100327.88;;;6.90;86.62
77216;BME280;66210;53.282;9.864;2023-04-15T03:49:52;100330.34;;;6.89;86.96
77216;BME280;66210;53.282;9.864;2023-04-15T03:52:19;100332.06;;;6.90;86.63
77216;BME280;66210;53.282;9.864;2023-04-15T03:54:46;100336.25;;;6.89;86.64
77216;BME280;66210;53.282;9.864;2023-04-15T03:57:13;100337.03;;;6.88;87.28
77216;BME280;66210;53.282;9.864;2023-04-15T03:59:40;100340.47;;;6.89;88.27
77216;BME280;66210;53.282;9.864;2023-04-15T04:02:06;100338.53;;;6.84;88.07
77216;BME280;66210;53.282;9.864;2023-04-15T04:04:33;100340.47;;;6.89;87.20
77216;BME280;66210;53.282;9.864;2023-04-15T04:07:00;100342.09;;;6.88;87.20
77216;BME280;66210;53.282;9.864;2023-04-15T04:09:27;100337.94;;;6.89;87.63
77216;BME280;66210;53.282;9.864;2023-04-15T04:11:53;100340.25;;;6.85;87.39
77216;BME280;66210;53.282;9.864;2023-04-15T04:14:20;100337.94;;;6.89;87.69
77216;BME280;66210;53.282;9.864;2023-04-15T04:16:54;100334.50;;;6.88;87.97
77216;BME280;66210;53.282;9.864;2023-04-15T04:19:21;100346.38;;;6.89;87.85
77216;BME280;66210;53.282;9.864;2023-04-15T04:21:48;100348.09;;;6.90;87.54
77216;BME280;66210;53.282;9.864;2023-04-15T04:24:15;100352.38;;;6.91;87.63
77216;BME280;66210;53.282;9.864;2023-04-15T04:26:42;100349.84;;;6.91;87.47
77216;BME280;66210;53.282;9.864;2023-04-15T04:29:09;100342.88;;;6.87;88.38
77216;BME280;66210;53.282;9.864;2023-04-15T04:31:35;100352.44;;;6.93;87.97
77216;BME280;66210;53.282;9.864;2023-04-15T04:34:02;100351.50;;;6.91;87.81
77216;BME280;66210;53.282;9.864;2023-04-15T04:36:29;100350.72;;;6.92;87.66
77216;BME280;66210;53.282;9.864;2023-04-15T04:38:55;100352.53;;;6.94;87.55
77216;BME280;66210;53.282;9.864;2023-04-15T04:41:22;100347.47;;;6.94;88.27
77216;BME280;66210;53.282;9.864;2023-04-15T04:43:49;100347.47;;;6.94;87.98
77216;BME280;66210;53.282;9.864;2023-04-15T04:46:16;100344.00;;;6.92;88.09
77216;BME280;66210;53.282;9.864;2023-04-15T04:48:43;100344.19;;;6.95;87.70
77216;BME280;66210;53.282;9.864;2023-04-15T04:51:12;100341.47;;;6.92;88.47
77216;BME280;66210;53.282;9.864;2023-04-15T04:53:39;100346.72;;;6.95;88.40
77216;BME280;66210;53.282;9.864;2023-04-15T04:56:07;100351.81;;;6.97;88.17
77216;BME280;66210;53.282;9.864;2023-04-15T04:58:34;100349.28;;;6.97;87.83
77216;BME280;66210;53.282;9.864;2023-04-15T05:01:00;100346.94;;;7.00;87.98
77216;BME280;66210;53.282;9.864;2023-04-15T05:03:28;100345.81;;;6.95;87.93
77216;BME280;66210;53.282;9.864;2023-04-15T05:05:55;100349.53;;;7.01;88.11
77216;BME280;66210;53.282;9.864;2023-04-15T05:08:22;100350.44;;;7.02;87.98
77216;BME280;66210;53.282;9.864;2023-04-15T05:10:48;100348.78;;;7.02;87.88
77216;BME280;66210;53.282;9.864;2023-04-15T05:13:15;100343.78;;;7.04;87.85
77216;BME280;66210;53.282;9.864;2023-04-15T05:15:42;100343.72;;;7.02;88.31
77216;BME280;66210;53.282;9.864;2023-04-15T05:18:22;100348.81;;;7.04;88.24
77216;BME280;66210;53.282;9.864;2023-04-15T05:21:14;100344.56;;;7.03;88.70
77216;BME280;66210;53.282;9.864;2023-04-15T05:23:41;100352.97;;;7.02;88.76
77216;BME280;66210;53.282;9.864;2023-04-15T05:26:07;100358.88;;;7.02;88.96
77216;BME280;66210;53.282;9.864;2023-04-15T05:28:34;100367.22;;;7.01;88.98
77216;BME280;66210;53.282;9.864;2023-04-15T05:31:01;100359.63;;;7.01;88.94
77216;BME280;66210;53.282;9.864;2023-04-15T05:33:28;100354.69;;;7.03;88.71
77216;BME280;66210;53.282;9.864;2023-04-15T05:35:55;100356.41;;;7.04;88.81
77216;BME280;66210;53.282;9.864;2023-04-15T05:38:21;100361.56;;;7.05;88.66
77216;BME280;66210;53.282;9.864;2023-04-15T05:40:48;100357.47;;;7.07;88.84
77216;BME280;66210;53.282;9.864;2023-04-15T05:43:15;100352.41;;;7.07;89.10
77216;BME280;66210;53.282;9.864;2023-04-15T05:45:42;100358.31;;;7.08;89.08
77216;BME280;66210;53.282;9.864;2023-04-15T05:48:08;100356.59;;;7.07;88.95
77216;BME280;66210;53.282;9.864;2023-04-15T05:50:35;100357.59;;;7.11;89.05
77216;BME280;66210;53.282;9.864;2023-04-15T05:53:02;100360.94;;;7.10;88.80
77216;BME280;66210;53.282;9.864;2023-04-15T05:55:29;100359.47;;;7.13;88.91
77216;BME280;66210;53.282;9.864;2023-04-15T05:57:56;100355.25;;;7.14;88.68
77216;BME280;66210;53.282;9.864;2023-04-15T06:00:23;100362.22;;;7.18;88.65
77216;BME280;66210;53.282;9.864;2023-04-15T06:02:50;100363.94;;;7.19;88.57
77216;BME280;66210;53.282;9.864;2023-04-15T06:05:18;100356.28;;;7.17;89.23
77216;BME280;66210;53.282;9.864;2023-04-15T06:07:45;100354.78;;;7.21;88.93
77216;BME280;66210;53.282;9.864;2023-04-15T06:10:16;100358.19;;;7.21;88.87
77216;BME280;66210;53.282;9.864;2023-04-15T06:12:48;100361.56;;;7.22;89.11
77216;BME280;66210;53.282;9.864;2023-04-15T06:15:14;100369.25;;;7.23;88.99
77216;BME280;66210;53.282;9.864;2023-04-15T06:17:42;100374.31;;;7.23;89.08
77216;BME280;66210;53.282;9.864;2023-04-15T06:20:09;100374.31;;;7.23;89.23
77216;BME280;66210;53.282;9.864;2023-04-15T06:22:37;100368.47;;;7.24;89.24
77216;BME280;66210;53.282;9.864;2023-04-15T06:25:05;100368.38;;;7.23;89.38
77216;BME280;66210;53.282;9.864;2023-04-15T06:27:34;100372.72;;;7.25;89.55
77216;BME280;66210;53.282;9.864;2023-04-15T06:30:00;100370.91;;;7.23;89.60
77216;BME280;66210;53.282;9.864;2023-04-15T06:32:27;100379.59;;;7.28;89.61
77216;BME280;66210;53.282;9.864;2023-04-15T06:34:54;100373.78;;;7.29;90.06
77216;BME280;66210;53.282;9.864;2023-04-15T06:37:21;100380.56;;;7.30;89.84
77216;BME280;66210;53.282;9.864;2023-04-15T06:39:47;100384.03;;;7.32;89.73
77216;BME280;66210;53.282;9.864;2023-04-15T06:42:14;100385.84;;;7.35;90.05
77216;BME280;66210;53.282;9.864;2023-04-15T06:44:42;100380.88;;;7.36;90.06
77216;BME280;66210;53.282;9.864;2023-04-15T06:47:08;100381.75;;;7.37;90.04
77216;BME280;66210;53.282;9.864;2023-04-15T06:49:35;100387.75;;;7.39;90.01
77216;BME280;66210;53.282;9.864;2023-04-15T06:52:02;100392.19;;;7.43;89.51
77216;BME280;66210;53.282;9.864;2023-04-15T06:54:30;100390.63;;;7.45;89.77
77216;BME280;66210;53.282;9.864;2023-04-15T06:56:57;100389.81;;;7.46;89.96
77216;BME280;66210;53.282;9.864;2023-04-15T06:59:24;100393.28;;;7.48;89.71
77216;BME280;66210;53.282;9.864;2023-04-15T07:01:51;100396.78;;;7.50;89.54
77216;BME280;66210;53.282;9.864;2023-04-15T07:04:17;100400.97;;;7.49;90.06
77216;BME280;66210;53.282;9.864;2023-04-15T07:06:44;100401.22;;;7.54;89.82
77216;BME280;66210;53.282;9.864;2023-04-15T07:09:11;100398.78;;;7.56;90.09
77216;BME280;66210;53.282;9.864;2023-04-15T07:11:38;100394.41;;;7.53;90.47
77216;BME280;66210;53.282;9.864;2023-04-15T07:14:05;100405.56;;;7.57;89.65
77216;BME280;66210;53.282;9.864;2023-04-15T07:16:32;100398.06;;;7.58;89.79
77216;BME280;66210;53.282;9.864;2023-04-15T07:18:58;100405.63;;;7.58;90.59
77216;BME280;66210;53.282;9.864;2023-04-15T07:21:26;100412.31;;;7.58;90.88
77216;BME280;66210;53.282;9.864;2023-04-15T07:23:53;100400.59;;;7.58;90.61
77216;BME280;66210;53.282;9.864;2023-04-15T07:26:19;100395.34;;;7.55;90.80
77216;BME280;66210;53.282;9.864;2023-04-15T07:28:46;100418.53;;;7.63;90.82
77216;BME280;66210;53.282;9.864;2023-04-15T07:31:13;100420.34;;;7.65;90.84
77216;BME280;66210;53.282;9.864;2023-04-15T07:33:40;100432.19;;;7.66;90.82
77216;BME280;66210;53.282;9.864;2023-04-15T07:36:07;100428.06;;;7.68;90.95
77216;BME280;66210;53.282;9.864;2023-04-15T07:38:34;100427.22;;;7.68;90.96
77216;BME280;66210;53.282;9.864;2023-04-15T07:41:01;100422.88;;;7.65;91.45
77216;BME280;66210;53.282;9.864;2023-04-15T07:43:28;100423.00;;;7.68;90.50
77216;BME280;66210;53.282;9.864;2023-04-15T07:45:55;100429.03;;;7.70;90.64
77216;BME280;66210;53.282;9.864;2023-04-15T07:48:22;100429.88;;;7.71;90.76
77216;BME280;66210;53.282;9.864;2023-04-15T07:50:48;100431.78;;;7.75;90.78
77216;BME280;66210;53.282;9.864;2023-04-15T07:53:15;100445.38;;;7.77;90.85
77216;BME280;66210;53.282;9.864;2023-04-15T07:55:42;100441.28;;;7.79;90.98
77216;BME280;66210;53.282;9.864;2023-04-15T07:58:08;100448.97;;;7.81;90.40
77216;BME280;66210;53.282;9.864;2023-04-15T08:00:35;100440.56;;;7.82;91.04
77216;BME280;66210;53.282;9.864;2023-04-15T08:03:03;100438.03;;;7.82;91.05
77216;BME280;66210;53.282;9.864;2023-04-15T08:05:30;100445.81;;;7.85;90.94
77216;BME280;66210;53.282;9.864;2023-04-15T08:10:28;100448.47;;;7.88;90.48
77216;BME280;66210;53.282;9.864;2023-04-15T08:12:55;100444.28;;;7.88;90.74
77216;BME280;66210;53.282;9.864;2023-04-15T08:15:23;100444.28;;;7.88;90.47
77216;BME280;66210;53.282;9.864;2023-04-15T08:17:49;100444.47;;;7.91;90.31
77216;BME280;66210;53.282;9.864;2023-04-15T08:20:16;100454.41;;;7.88;91.10
77216;BME280;66210;53.282;9.864;2023-04-15T08:22:43;100453.69;;;7.91;90.66
77216;BME280;66210;53.282;9.864;2023-04-15T08:25:10;100464.94;;;7.96;90.80
77216;BME280;66210;53.282;9.864;2023-04-15T08:27:36;100452.19;;;7.95;90.85
77216;BME280;66210;53.282;9.864;2023-04-15T08:30:03;100461.84;;;8.02;90.61
77216;BME280;66210;53.282;9.864;2023-04-15T08:32:30;100451.72;;;8.02;90.41
77216;BME280;66210;53.282;9.864;2023-04-15T08:34:57;100460.41;;;8.07;90.96
77216;BME280;66210;53.282;9.864;2023-04-15T08:37:24;100457.25;;;8.11;90.83
77216;BME280;66210;53.282;9.864;2023-04-15T08:39:52;100451.47;;;8.13;90.58
77216;BME280;66210;53.282;9.864;2023-04-15T08:42:22;100452.50;;;8.17;90.95
77216;BME280;66210;53.282;9.864;2023-04-15T08:44:53;100458.84;;;8.25;90.52
77216;BME280;66210;53.282;9.864;2023-04-15T08:47:23;100454.28;;;8.36;90.01
77216;BME280;66210;53.282;9.864;2023-04-15T08:49:54;100460.66;;;8.44;90.39
77216;BME280;66210;53.282;9.864;2023-04-15T08:52:20;100461.75;;;8.49;90.49
77216;BME280;66210;53.282;9.864;2023-04-15T08:54:47;100462.88;;;8.55;90.09
77216;BME280;66210;53.282;9.864;2023-04-15T08:57:14;100461.72;;;8.66;89.77
77216;BME280;66210;53.282;9.864;2023-04-15T08:59:41;100467.16;;;8.73;89.63
77216;BME280;66210;53.282;9.864;2023-04-15T09:02:08;100472.53;;;8.80;89.15
77216;BME280;66210;53.282;9.864;2023-04-15T09:04:35;100471.09;;;8.85;88.85
77216;BME280;66210;53.282;9.864;2023-04-15T09:07:02;100478.91;;;8.89;89.46
77216;BME280;66210;53.282;9.864;2023-04-15T09:09:28;100478.34;;;8.95;88.80
77216;BME280;66210;53.282;9.864;2023-04-15T09:11:55;100490.59;;;9.04;88.86
77216;BME280;66210;53.282;9.864;2023-04-15T09:14:22;100479.72;;;9.06;88.69
77216;BME280;66210;53.282;9.864;2023-04-15T09:17:04;100488.50;;;9.13;88.75
77216;BME280;66210;53.282;9.864;2023-04-15T09:19:30;100487.84;;;9.17;87.84
77216;BME280;66210;53.282;9.864;2023-04-15T09:21:59;100490.31;;;9.15;87.63
77216;BME280;66210;53.282;9.864;2023-04-15T09:24:35;100492.63;;;9.11;87.98
77216;BME280;66210;53.282;9.864;2023-04-15T09:27:03;100491.75;;;9.10;88.54
77216;BME280;66210;53.282;9.864;2023-04-15T09:29:29;100494.28;;;9.10;88.32
77216;BME280;66210;53.282;9.864;2023-04-15T09:32:08;100494.50;;;9.15;88.60
77216;BME280;66210;53.282;9.864;2023-04-15T09:34:36;100498.03;;;9.19;88.51
77216;BME280;66210;53.282;9.864;2023-04-15T09:37:03;100502.47;;;9.23;88.03
77216;BME280;66210;53.282;9.864;2023-04-15T09:39:49;100505.94;;;9.25;88.46
77216;BME280;66210;53.282;9.864;2023-04-15T09:42:17;100502.75;;;9.29;88.13
77216;BME280;66210;53.282;9.864;2023-04-15T09:44:50;100502.75;;;9.29;88.44
77216;BME280;66210;53.282;9.864;2023-04-15T09:47:30;100498.47;;;9.28;87.75
77216;BME280;66210;53.282;9.864;2023-04-15T09:49:58;100505.34;;;9.30;87.79
77216;BME280;66210;53.282;9.864;2023-04-15T09:52:26;100513.03;;;9.32;86.69
77216;BME280;66210;53.282;9.864;2023-04-15T09:54:53;100516.44;;;9.32;87.74
77216;BME280;66210;53.282;9.864;2023-04-15T09:57:23;100506.59;;;9.39;87.14
77216;BME280;66210;53.282;9.864;2023-04-15T09:59:50;100508.69;;;9.47;87.85
77216;BME280;66210;53.282;9.864;2023-04-15T10:02:18;100501.38;;;9.53;87.68
77216;BME280;66210;53.282;9.864;2023-04-15T10:04:47;100508.25;;;9.56;87.19
77216;BME280;66210;53.282;9.864;2023-04-15T10:07:14;100504.84;;;9.55;87.28
77216;BME280;66210;53.282;9.864;2023-04-15T10:09:41;100509.31;;;9.61;86.75
77216;BME280;66210;53.282;9.864;2023-04-15T10:12:11;100511.34;;;9.68;86.87
77216;BME280;66210;53.282;9.864;2023-04-15T10:14:39;100510.63;;;9.71;86.97
77216;BME280;66210;53.282;9.864;2023-04-15T10:17:09;100505.69;;;9.74;86.60
77216;BME280;66210;53.282;9.864;2023-04-15T10:19:37;100521.03;;;9.77;86.64
77216;BME280;66210;53.282;9.864;2023-04-15T10:22:04;100516.84;;;9.77;86.64
77216;BME280;66210;53.282;9.864;2023-04-15T10:24:32;100528.94;;;9.83;87.05
77216;BME280;66210;53.282;9.864;2023-04-15T10:26:59;100536.63;;;9.85;86.57
77216;BME280;66210;53.282;9.864;2023-04-15T10:29:29;100525.38;;;9.79;86.78
77216;BME280;66210;53.282;9.864;2023-04-15T10:31:58;100538.28;;;9.84;86.00
77216;BME280;66210;53.282;9.864;2023-04-15T10:34:26;100537.56;;;9.87;86.16
77216;BME280;66210;53.282;9.864;2023-04-15T10:37:01;100535.88;;;9.87;86.72
77216;BME280;66210;53.282;9.864;2023-04-15T10:39:38;100533.78;;;9.96;86.66
77216;BME280;66210;53.282;9.864;2023-04-15T10:42:13;100534.84;;;10.02;86.24
77216;BME280;66210;53.282;9.864;2023-04-15T10:44:42;100531.91;;;10.12;85.94
77216;BME280;66210;53.282;9.864;2023-04-15T10:47:14;100535.88;;;10.25;86.62
77216;BME280;66210;53.282;9.864;2023-04-15T10:49:49;100540.44;;;10.32;85.39
77216;BME280;66210;53.282;9.864;2023-04-15T10:52:17;100532.47;;;10.44;85.53
77216;BME280;66210;53.282;9.864;2023-04-15T10:54:47;100539.75;;;10.55;85.17
77216;BME280;66210;53.282;9.864;2023-04-15T10:57:21;100541.69;;;10.61;85.22
77216;BME280;66210;53.282;9.864;2023-04-15T11:05:20;100552.72;;;10.61;84.38
77216;BME280;66210;53.282;9.864;2023-04-15T11:07:54;100557.88;;;10.63;84.53
77216;BME280;66210;53.282;9.864;2023-04-15T11:12:53;100547.84;;;10.66;84.41
77216;BME280;66210;53.282;9.864;2023-04-15T11:15:34;100562.59;;;10.75;84.43
77216;BME280;66210;53.282;9.864;2023-04-15T11:18:21;100563.00;;;10.84;84.44
77216;BME280;66210;53.282;9.864;2023-04-15T11:20:55;100564.19;;;10.92;84.07
77216;BME280;66210;53.282;9.864;2023-04-15T11:23:36;100563.56;;;10.98;83.86
77216;BME280;66210;53.282;9.864;2023-04-15T11:26:05;100564.56;;;11.01;83.13
77216;BME280;66210;53.282;9.864;2023-04-15T11:28:35;100563.00;;;11.05;83.46
77216;BME280;66210;53.282;9.864;2023-04-15T11:31:04;100564.09;;;11.10;83.18
77216;BME280;66210;53.282;9.864;2023-04-15T11:33:31;100565.81;;;11.11;83.11
77216;BME280;66210;53.282;9.864;2023-04-15T11:35:58;100565.13;;;11.15;83.00
77216;BME280;66210;53.282;9.864;2023-04-15T11:38:24;100563.78;;;11.23;82.89
77216;BME280;66210;53.282;9.864;2023-04-15T11:40:51;100568.47;;;11.35;82.24
77216;BME280;66210;53.282;9.864;2023-04-15T11:43:20;100585.09;;;11.48;81.71
77216;BME280;66210;53.282;9.864;2023-04-15T11:45:55;100580.41;;;11.59;80.56
77216;BME280;66210;53.282;9.864;2023-04-15T11:48:24;100584.97;;;11.66;80.62
77216;BME280;66210;53.282;9.864;2023-04-15T11:51:02;100583.97;;;11.62;78.98
77216;BME280;66210;53.282;9.864;2023-04-15T11:53:43;100592.84;;;11.51;80.05
77216;BME280;66210;53.282;9.864;2023-04-15T11:56:25;100589.94;;;11.42;80.01
77216;BME280;66210;53.282;9.864;2023-04-15T11:58:58;100592.31;;;11.37;80.65
77216;BME280;66210;53.282;9.864;2023-04-15T12:01:35;100589.94;;;11.42;81.13
77216;BME280;66210;53.282;9.864;2023-04-15T12:04:14;100597.84;;;11.48;81.08
77216;BME280;66210;53.282;9.864;2023-04-15T12:06:41;100591.13;;;11.50;81.31
77216;BME280;66210;53.282;9.864;2023-04-15T12:09:10;100598.31;;;11.60;80.88
77216;BME280;66210;53.282;9.864;2023-04-15T12:14:10;100600.09;;;11.63;77.56
77216;BME280;66210;53.282;9.864;2023-04-15T12:16:46;100599.41;;;11.67;78.43
77216;BME280;66210;53.282;9.864;2023-04-15T12:19:21;100591.84;;;11.69;78.44
77216;BME280;66210;53.282;9.864;2023-04-15T12:21:49;100594.31;;;11.88;77.60
77216;BME280;66210;53.282;9.864;2023-04-15T12:24:19;100606.84;;;12.04;76.76
77216;BME280;66210;53.282;9.864;2023-04-15T12:26:51;100604.88;;;12.20;76.32
77216;BME280;66210;53.282;9.864;2023-04-15T12:29:20;100602.81;;;12.34;73.27
77216;BME280;66210;53.282;9.864;2023-04-15T12:32:10;100598.97;;;12.45;72.62
77216;BME280;66210;53.282;9.864;2023-04-15T12:34:50;100602.00;;;12.59;73.83
77216;BME280;66210;53.282;9.864;2023-04-15T12:37:17;100604.44;;;12.80;73.03
77216;BME280;66210;53.282;9.864;2023-04-15T12:39:46;100609.44;;;13.01;73.75
77216;BME280;66210;53.282;9.864;2023-04-15T12:42:14;100608.81;;;13.08;70.63
77216;BME280;66210;53.282;9.864;2023-04-15T12:44:41;100619.38;;;13.19;69.06
77216;BME280;66210;53.282;9.864;2023-04-15T12:47:09;100612.81;;;13.25;68.73
77216;BME280;66210;53.282;9.864;2023-04-15T12:49:36;100612.97;;;13.30;70.11
77216;BME280;66210;53.282;9.864;2023-04-15T12:52:03;100611.38;;;13.34;68.57
77216;BME280;66210;53.282;9.864;2023-04-15T12:54:30;100613.13;;;13.35;69.55
77216;BME280;66210;53.282;9.864;2023-04-15T12:56:58;100613.91;;;13.32;69.83
77216;BME280;66210;53.282;9.864;2023-04-15T12:59:25;100617.94;;;13.27;68.12
77216;BME280;66210;53.282;9.864;2023-04-15T13:01:52;100618.63;;;13.21;67.66
77216;BME280;66210;53.282;9.864;2023-04-15T13:04:20;100627.81;;;13.16;69.72
77216;BME280;66210;53.282;9.864;2023-04-15T13:06:48;100618.25;;;13.10;68.67
77216;BME280;66210;53.282;9.864;2023-04-15T13:09:14;100628.22;;;13.04;69.33
77216;BME280;66210;53.282;9.864;2023-04-15T13:11:41;100629.72;;;12.98;70.84
77216;BME280;66210;53.282;9.864;2023-04-15T13:14:09;100629.94;;;13.04;70.70
77216;BME280;66210;53.282;9.864;2023-04-15T13:16:37;100639.19;;;13.02;69.60